sensor_id;sensor_type;location;lat;lon;timestamp;temperature;humidity
70154;DHT22;57519;51.494;-2.626;2022-12-01T00:01:26;3.85;98.93
70154;DHT22;57519;51.494;-2.626;2022-12-01T00:03:51;3.87;98.97
70154;DHT22;57519;51.494;-2.626;2022-12-01T00:06:18;3.87;99.00
70154;DHT22;57519;51.494;-2.626;2022-12-01T00:08:45;3.86;99.05
70154;DHT22;57519;51.494;-2.626;2022-12-01T00:11:30;3.85;99.06
70154;DHT22;57519;51.494;-2.626;2022-12-01T00:13:55;3.83;99.15
70154;DHT22;57519;51.494;-2.626;2022-12-01T00:16:21;3.76;99.08
70154;DHT22;57519;51.494;-2.626;2022-12-01T00:18:50;3.70;99.11
70154;DHT22;57519;51.494;-2.626;2022-12-01T00:21:18;3.62;99.13
70154;DHT22;57519;51.494;-2.626;2022-12-01T00:23:52;3.61;99.20
70154;DHT22;57519;51.494;-2.626;2022-12-01T00:26:18;3.56;99.21
70154;DHT22;57519;51.494;-2.626;2022-12-01T00:28:50;3.52;99.25
70154;DHT22;57519;51.494;-2.626;2022-12-01T00:31:16;3.50;99.31
70154;DHT22;57519;51.494;-2.626;2022-12-01T00:33:41;3.51;99.32
70154;DHT22;57519;51.494;-2.626;2022-12-01T00:36:07;3.51;99.42
70154;DHT22;57519;51.494;-2.626;2022-12-01T00:38:33;3.50;99.41
70154;DHT22;57519;51.494;-2.626;2022-12-01T00:40:59;3.45;99.45
70154;DHT22;57519;51.494;-2.626;2022-12-01T00:43:24;3.44;99.48
70154;DHT22;57519;51.494;-2.626;2022-12-01T00:45:50;3.41;99.52
70154;DHT22;57519;51.494;-2.626;2022-12-01T00:48:16;3.38;99.59
70154;DHT22;57519;51.494;-2.626;2022-12-01T00:50:41;3.38;99.58
70154;DHT22;57519;51.494;-2.626;2022-12-01T00:53:07;3.34;99.59
70154;DHT22;57519;51.494;-2.626;2022-12-01T00:55:33;3.28;99.59
70154;DHT22;57519;51.494;-2.626;2022-12-01T00:57:58;3.30;99.63
70154;DHT22;57519;51.494;-2.626;2022-12-01T01:00:23;3.28;99.64
70154;DHT22;57519;51.494;-2.626;2022-12-01T01:02:49;3.27;99.68
70154;DHT22;57519;51.494;-2.626;2022-12-01T01:05:14;3.28;99.65
70154;DHT22;57519;51.494;-2.626;2022-12-01T01:07:40;3.27;99.73
70154;DHT22;57519;51.494;-2.626;2022-12-01T01:10:05;3.17;99.75
70154;DHT22;57519;51.494;-2.626;2022-12-01T01:12:31;3.17;99.76
70154;DHT22;57519;51.494;-2.626;2022-12-01T01:14:56;3.11;99.75
70154;DHT22;57519;51.494;-2.626;2022-12-01T01:17:22;3.01;99.77
70154;DHT22;57519;51.494;-2.626;2022-12-01T01:19:47;2.84;99.73
70154;DHT22;57519;51.494;-2.626;2022-12-01T01:22:13;2.80;99.75
70154;DHT22;57519;51.494;-2.626;2022-12-01T01:24:38;2.72;99.72
70154;DHT22;57519;51.494;-2.626;2022-12-01T01:27:03;2.66;99.74
70154;DHT22;57519;51.494;-2.626;2022-12-01T01:29:30;2.65;99.77
70154;DHT22;57519;51.494;-2.626;2022-12-01T01:31:56;2.63;99.78
70154;DHT22;57519;51.494;-2.626;2022-12-01T01:34:21;2.65;99.82
70154;DHT22;57519;51.494;-2.626;2022-12-01T01:36:47;2.72;99.83
70154;DHT22;57519;51.494;-2.626;2022-12-01T01:39:12;2.73;99.87
70154;DHT22;57519;51.494;-2.626;2022-12-01T01:41:37;2.77;99.85
70154;DHT22;57519;51.494;-2.626;2022-12-01T01:47:07;2.77;99.90
70154;DHT22;57519;51.494;-2.626;2022-12-01T01:49:32;2.75;99.88
70154;DHT22;57519;51.494;-2.626;2022-12-01T01:51:57;2.73;99.91
70154;DHT22;57519;51.494;-2.626;2022-12-01T01:54:27;2.72;99.88
70154;DHT22;57519;51.494;-2.626;2022-12-01T01:56:54;2.72;99.92
70154;DHT22;57519;51.494;-2.626;2022-12-01T01:59:25;2.71;99.91
70154;DHT22;57519;51.494;-2.626;2022-12-01T02:01:57;2.72;99.86
70154;DHT22;57519;51.494;-2.626;2022-12-01T02:04:25;2.76;99.93
70154;DHT22;57519;51.494;-2.626;2022-12-01T02:06:51;2.79;99.95
70154;DHT22;57519;51.494;-2.626;2022-12-01T02:09:17;2.80;99.99
70154;DHT22;57519;51.494;-2.626;2022-12-01T02:11:46;2.76;99.98
70154;DHT22;57519;51.494;-2.626;2022-12-01T02:23:00;2.83;99.99
70154;DHT22;57519;51.494;-2.626;2022-12-01T02:31:13;2.92;99.99
70154;DHT22;57519;51.494;-2.626;2022-12-01T02:34:42;2.90;99.99
70154;DHT22;57519;51.494;-2.626;2022-12-01T02:36:54;2.93;99.99
70154;DHT22;57519;51.494;-2.626;2022-12-01T02:39:36;2.97;99.99
70154;DHT22;57519;51.494;-2.626;2022-12-01T02:48:10;3.21;99.99
70154;DHT22;57519;51.494;-2.626;2022-12-01T02:50:38;3.23;99.99
70154;DHT22;57519;51.494;-2.626;2022-12-01T02:53:06;3.27;99.99
70154;DHT22;57519;51.494;-2.626;2022-12-01T02:55:32;3.24;99.99
70154;DHT22;57519;51.494;-2.626;2022-12-01T02:57:58;3.23;99.99
70154;DHT22;57519;51.494;-2.626;2022-12-01T03:00:23;3.25;99.99
70154;DHT22;57519;51.494;-2.626;2022-12-01T03:03:06;3.21;99.99
70154;DHT22;57519;51.494;-2.626;2022-12-01T03:05:40;3.18;99.99
70154;DHT22;57519;51.494;-2.626;2022-12-01T03:10:55;3.25;99.99
70154;DHT22;57519;51.494;-2.626;2022-12-01T03:13:48;3.30;99.99
70154;DHT22;57519;51.494;-2.626;2022-12-01T03:21:56;3.21;99.99
70154;DHT22;57519;51.494;-2.626;2022-12-01T03:24:25;3.24;99.99
70154;DHT22;57519;51.494;-2.626;2022-12-01T03:26:56;3.25;99.99
70154;DHT22;57519;51.494;-2.626;2022-12-01T03:29:30;3.24;99.99
70154;DHT22;57519;51.494;-2.626;2022-12-01T03:32:02;3.24;99.99
70154;DHT22;57519;51.494;-2.626;2022-12-01T03:34:38;3.25;99.99
70154;DHT22;57519;51.494;-2.626;2022-12-01T03:37:13;3.30;99.99
70154;DHT22;57519;51.494;-2.626;2022-12-01T03:39:43;3.38;99.99
70154;DHT22;57519;51.494;-2.626;2022-12-01T03:42:22;3.39;99.99
70154;DHT22;57519;51.494;-2.626;2022-12-01T03:44:51;3.35;99.99
70154;DHT22;57519;51.494;-2.626;2022-12-01T03:47:24;3.41;99.99
70154;DHT22;57519;51.494;-2.626;2022-12-01T03:49:51;3.45;99.99
70154;DHT22;57519;51.494;-2.626;2022-12-01T03:52:39;3.52;99.99
70154;DHT22;57519;51.494;-2.626;2022-12-01T03:55:24;3.55;99.99
70154;DHT22;57519;51.494;-2.626;2022-12-01T03:57:54;3.54;99.99
70154;DHT22;57519;51.494;-2.626;2022-12-01T04:00:22;3.51;99.99
70154;DHT22;57519;51.494;-2.626;2022-12-01T04:02:55;3.46;99.99
70154;DHT22;57519;51.494;-2.626;2022-12-01T04:05:20;3.51;99.99
70154;DHT22;57519;51.494;-2.626;2022-12-01T04:07:46;3.54;99.99
70154;DHT22;57519;51.494;-2.626;2022-12-01T04:10:11;3.56;99.99
70154;DHT22;57519;51.494;-2.626;2022-12-01T04:12:36;3.54;99.99
70154;DHT22;57519;51.494;-2.626;2022-12-01T04:15:07;3.54;99.99
70154;DHT22;57519;51.494;-2.626;2022-12-01T04:17:34;3.50;99.99
70154;DHT22;57519;51.494;-2.626;2022-12-01T04:19:59;3.50;99.99
70154;DHT22;57519;51.494;-2.626;2022-12-01T04:22:25;3.52;99.99
70154;DHT22;57519;51.494;-2.626;2022-12-01T04:24:51;3.48;99.99
70154;DHT22;57519;51.494;-2.626;2022-12-01T04:27:18;3.48;99.99
70154;DHT22;57519;51.494;-2.626;2022-12-01T04:29:43;3.54;99.99
70154;DHT22;57519;51.494;-2.626;2022-12-01T04:32:09;3.55;99.99
70154;DHT22;57519;51.494;-2.626;2022-12-01T04:34:34;3.62;99.99
70154;DHT22;57519;51.494;-2.626;2022-12-01T04:37:00;3.62;99.99
70154;DHT22;57519;51.494;-2.626;2022-12-01T04:39:25;3.62;99.99
70154;DHT22;57519;51.494;-2.626;2022-12-01T04:41:50;3.68;99.99
70154;DHT22;57519;51.494;-2.626;2022-12-01T04:44:16;3.69;99.99
70154;DHT22;57519;51.494;-2.626;2022-12-01T04:46:41;3.70;99.99
70154;DHT22;57519;51.494;-2.626;2022-12-01T04:49:07;3.66;99.99
70154;DHT22;57519;51.494;-2.626;2022-12-01T04:51:32;3.61;99.99
70154;DHT22;57519;51.494;-2.626;2022-12-01T04:53:58;3.56;99.99
70154;DHT22;57519;51.494;-2.626;2022-12-01T04:56:23;3.55;99.99
70154;DHT22;57519;51.494;-2.626;2022-12-01T04:58:49;3.52;99.99
70154;DHT22;57519;51.494;-2.626;2022-12-01T05:01:16;3.56;99.99
70154;DHT22;57519;51.494;-2.626;2022-12-01T05:03:44;3.59;99.99
70154;DHT22;57519;51.494;-2.626;2022-12-01T05:06:12;3.59;99.99
70154;DHT22;57519;51.494;-2.626;2022-12-01T05:08:38;3.58;99.99
70154;DHT22;57519;51.494;-2.626;2022-12-01T05:11:04;3.55;99.99
70154;DHT22;57519;51.494;-2.626;2022-12-01T05:13:35;3.54;99.99
70154;DHT22;57519;51.494;-2.626;2022-12-01T05:16:15;3.58;99.99
70154;DHT22;57519;51.494;-2.626;2022-12-01T05:18:41;3.56;99.99
70154;DHT22;57519;51.494;-2.626;2022-12-01T05:21:09;3.59;99.99
70154;DHT22;57519;51.494;-2.626;2022-12-01T05:23:36;3.58;99.99
70154;DHT22;57519;51.494;-2.626;2022-12-01T05:26:03;3.62;99.99
70154;DHT22;57519;51.494;-2.626;2022-12-01T05:28:29;3.62;99.99
70154;DHT22;57519;51.494;-2.626;2022-12-01T05:30:54;3.58;99.99
70154;DHT22;57519;51.494;-2.626;2022-12-01T05:33:21;3.61;99.99
70154;DHT22;57519;51.494;-2.626;2022-12-01T05:35:48;3.59;99.99
70154;DHT22;57519;51.494;-2.626;2022-12-01T05:38:13;3.58;99.99
70154;DHT22;57519;51.494;-2.626;2022-12-01T05:40:39;3.59;99.99
70154;DHT22;57519;51.494;-2.626;2022-12-01T05:43:05;3.63;99.99
70154;DHT22;57519;51.494;-2.626;2022-12-01T05:45:31;3.66;99.99
70154;DHT22;57519;51.494;-2.626;2022-12-01T05:47:58;3.68;99.99
70154;DHT22;57519;51.494;-2.626;2022-12-01T05:50:25;3.68;99.99
70154;DHT22;57519;51.494;-2.626;2022-12-01T05:52:51;3.70;99.99
70154;DHT22;57519;51.494;-2.626;2022-12-01T05:55:16;3.75;99.99
70154;DHT22;57519;51.494;-2.626;2022-12-01T05:57:42;3.73;99.99
70154;DHT22;57519;51.494;-2.626;2022-12-01T06:00:08;3.78;99.99
70154;DHT22;57519;51.494;-2.626;2022-12-01T06:02:33;3.86;99.99
70154;DHT22;57519;51.494;-2.626;2022-12-01T06:04:58;3.82;99.99
70154;DHT22;57519;51.494;-2.626;2022-12-01T06:07:24;3.85;99.99
70154;DHT22;57519;51.494;-2.626;2022-12-01T06:09:50;3.82;99.99
70154;DHT22;57519;51.494;-2.626;2022-12-01T06:12:16;3.91;99.99
70154;DHT22;57519;51.494;-2.626;2022-12-01T06:14:41;3.93;99.99
70154;DHT22;57519;51.494;-2.626;2022-12-01T06:17:07;3.93;99.99
70154;DHT22;57519;51.494;-2.626;2022-12-01T06:19:32;3.93;99.99
70154;DHT22;57519;51.494;-2.626;2022-12-01T06:21:58;3.97;99.99
70154;DHT22;57519;51.494;-2.626;2022-12-01T06:24:23;3.94;99.99
70154;DHT22;57519;51.494;-2.626;2022-12-01T06:26:48;3.99;99.99
70154;DHT22;57519;51.494;-2.626;2022-12-01T06:29:14;3.99;99.99
70154;DHT22;57519;51.494;-2.626;2022-12-01T06:31:40;4.01;99.99
70154;DHT22;57519;51.494;-2.626;2022-12-01T06:34:06;4.01;99.99
70154;DHT22;57519;51.494;-2.626;2022-12-01T06:36:31;3.96;99.99
70154;DHT22;57519;51.494;-2.626;2022-12-01T06:38:57;3.99;99.99
70154;DHT22;57519;51.494;-2.626;2022-12-01T06:41:22;4.00;99.99
70154;DHT22;57519;51.494;-2.626;2022-12-01T06:43:48;4.06;99.99
70154;DHT22;57519;51.494;-2.626;2022-12-01T06:46:13;4.13;99.99
70154;DHT22;57519;51.494;-2.626;2022-12-01T06:48:38;4.10;99.99
70154;DHT22;57519;51.494;-2.626;2022-12-01T06:51:04;4.07;99.99
70154;DHT22;57519;51.494;-2.626;2022-12-01T06:53:29;4.06;99.99
70154;DHT22;57519;51.494;-2.626;2022-12-01T06:55:59;4.11;99.99
70154;DHT22;57519;51.494;-2.626;2022-12-01T06:58:25;3.99;99.99
70154;DHT22;57519;51.494;-2.626;2022-12-01T07:00:51;4.00;99.99
70154;DHT22;57519;51.494;-2.626;2022-12-01T07:03:16;3.97;99.99
70154;DHT22;57519;51.494;-2.626;2022-12-01T07:05:41;4.00;99.99
70154;DHT22;57519;51.494;-2.626;2022-12-01T07:08:07;4.01;99.99
70154;DHT22;57519;51.494;-2.626;2022-12-01T07:10:33;4.04;99.99
70154;DHT22;57519;51.494;-2.626;2022-12-01T07:12:58;4.03;99.99
70154;DHT22;57519;51.494;-2.626;2022-12-01T07:15:23;4.01;99.99
70154;DHT22;57519;51.494;-2.626;2022-12-01T07:17:49;4.03;99.99
70154;DHT22;57519;51.494;-2.626;2022-12-01T07:20:15;4.03;99.99
70154;DHT22;57519;51.494;-2.626;2022-12-01T07:22:40;4.03;99.99
70154;DHT22;57519;51.494;-2.626;2022-12-01T07:25:07;4.01;99.99
70154;DHT22;57519;51.494;-2.626;2022-12-01T07:27:33;4.03;99.99
70154;DHT22;57519;51.494;-2.626;2022-12-01T07:29:59;3.97;99.99
70154;DHT22;57519;51.494;-2.626;2022-12-01T07:32:24;3.91;99.99
70154;DHT22;57519;51.494;-2.626;2022-12-01T07:34:50;3.91;99.99
70154;DHT22;57519;51.494;-2.626;2022-12-01T07:37:15;3.91;99.99
70154;DHT22;57519;51.494;-2.626;2022-12-01T07:39:40;3.97;99.99
70154;DHT22;57519;51.494;-2.626;2022-12-01T07:42:06;4.00;99.99
70154;DHT22;57519;51.494;-2.626;2022-12-01T07:44:31;3.96;99.99
70154;DHT22;57519;51.494;-2.626;2022-12-01T07:46:56;3.97;99.99
70154;DHT22;57519;51.494;-2.626;2022-12-01T07:49:22;3.99;99.99
70154;DHT22;57519;51.494;-2.626;2022-12-01T07:51:47;4.06;99.99
70154;DHT22;57519;51.494;-2.626;2022-12-01T07:54:13;4.01;99.99
70154;DHT22;57519;51.494;-2.626;2022-12-01T07:56:39;3.96;99.99
70154;DHT22;57519;51.494;-2.626;2022-12-01T07:59:05;4.01;99.99
70154;DHT22;57519;51.494;-2.626;2022-12-01T08:01:30;4.01;99.99
70154;DHT22;57519;51.494;-2.626;2022-12-01T08:03:57;4.06;99.99
70154;DHT22;57519;51.494;-2.626;2022-12-01T08:06:24;4.01;99.99
70154;DHT22;57519;51.494;-2.626;2022-12-01T08:08:49;4.03;99.99
70154;DHT22;57519;51.494;-2.626;2022-12-01T08:11:18;4.04;99.99
70154;DHT22;57519;51.494;-2.626;2022-12-01T08:13:43;4.01;99.99
70154;DHT22;57519;51.494;-2.626;2022-12-01T08:16:11;3.99;99.99
70154;DHT22;57519;51.494;-2.626;2022-12-01T08:18:38;4.00;99.99
70154;DHT22;57519;51.494;-2.626;2022-12-01T08:21:05;3.97;99.99
70154;DHT22;57519;51.494;-2.626;2022-12-01T08:23:30;4.03;99.99
70154;DHT22;57519;51.494;-2.626;2022-12-01T08:26:00;4.00;99.99
70154;DHT22;57519;51.494;-2.626;2022-12-01T08:28:26;4.07;99.99
70154;DHT22;57519;51.494;-2.626;2022-12-01T08:30:51;4.07;99.99
70154;DHT22;57519;51.494;-2.626;2022-12-01T08:33:17;4.01;99.99
70154;DHT22;57519;51.494;-2.626;2022-12-01T08:35:42;4.07;99.99
70154;DHT22;57519;51.494;-2.626;2022-12-01T08:38:08;4.09;99.99
70154;DHT22;57519;51.494;-2.626;2022-12-01T08:40:33;4.11;99.99
70154;DHT22;57519;51.494;-2.626;2022-12-01T08:42:59;4.14;99.99
70154;DHT22;57519;51.494;-2.626;2022-12-01T08:45:24;4.11;99.99
70154;DHT22;57519;51.494;-2.626;2022-12-01T08:47:49;4.20;99.99
70154;DHT22;57519;51.494;-2.626;2022-12-01T08:50:17;4.28;99.99
70154;DHT22;57519;51.494;-2.626;2022-12-01T08:52:42;4.30;99.99
70154;DHT22;57519;51.494;-2.626;2022-12-01T08:55:08;4.28;99.99
70154;DHT22;57519;51.494;-2.626;2022-12-01T08:57:33;4.28;99.99
70154;DHT22;57519;51.494;-2.626;2022-12-01T08:59:58;4.20;99.99
70154;DHT22;57519;51.494;-2.626;2022-12-01T09:02:24;4.17;99.99
70154;DHT22;57519;51.494;-2.626;2022-12-01T09:04:50;4.16;99.99
70154;DHT22;57519;51.494;-2.626;2022-12-01T09:07:16;4.17;99.99
70154;DHT22;57519;51.494;-2.626;2022-12-01T09:09:42;4.14;99.99
70154;DHT22;57519;51.494;-2.626;2022-12-01T09:12:08;4.27;99.99
70154;DHT22;57519;51.494;-2.626;2022-12-01T09:14:41;4.33;99.99
70154;DHT22;57519;51.494;-2.626;2022-12-01T09:17:09;4.30;99.99
70154;DHT22;57519;51.494;-2.626;2022-12-01T09:19:35;4.31;99.93
70154;DHT22;57519;51.494;-2.626;2022-12-01T09:22:00;4.44;99.92
70154;DHT22;57519;51.494;-2.626;2022-12-01T09:24:26;4.51;99.82
70154;DHT22;57519;51.494;-2.626;2022-12-01T09:26:56;4.57;99.77
70154;DHT22;57519;51.494;-2.626;2022-12-01T09:29:22;4.49;99.66
70154;DHT22;57519;51.494;-2.626;2022-12-01T09:31:47;4.51;99.58
70154;DHT22;57519;51.494;-2.626;2022-12-01T09:34:16;4.59;99.52
70154;DHT22;57519;51.494;-2.626;2022-12-01T09:36:42;4.72;99.39
70154;DHT22;57519;51.494;-2.626;2022-12-01T09:39:11;4.79;99.34
70154;DHT22;57519;51.494;-2.626;2022-12-01T09:41:53;4.69;99.19
70154;DHT22;57519;51.494;-2.626;2022-12-01T09:44:45;4.66;99.09
70154;DHT22;57519;51.494;-2.626;2022-12-01T09:47:25;4.66;98.90
70154;DHT22;57519;51.494;-2.626;2022-12-01T09:50:06;4.69;98.74
70154;DHT22;57519;51.494;-2.626;2022-12-01T09:52:52;4.66;98.54
70154;DHT22;57519;51.494;-2.626;2022-12-01T09:55:20;4.71;98.46
70154;DHT22;57519;51.494;-2.626;2022-12-01T09:57:50;4.72;98.34
70154;DHT22;57519;51.494;-2.626;2022-12-01T10:00:18;4.85;98.29
70154;DHT22;57519;51.494;-2.626;2022-12-01T10:02:51;4.95;98.26
70154;DHT22;57519;51.494;-2.626;2022-12-01T10:05:20;4.90;98.14
70154;DHT22;57519;51.494;-2.626;2022-12-01T10:07:54;4.95;97.97
70154;DHT22;57519;51.494;-2.626;2022-12-01T10:10:33;4.95;97.82
70154;DHT22;57519;51.494;-2.626;2022-12-01T10:13:00;5.00;97.80
70154;DHT22;57519;51.494;-2.626;2022-12-01T10:15:43;4.93;97.59
70154;DHT22;57519;51.494;-2.626;2022-12-01T10:18:27;4.90;97.47
70154;DHT22;57519;51.494;-2.626;2022-12-01T10:21:02;4.83;97.22
70154;DHT22;57519;51.494;-2.626;2022-12-01T10:26:08;4.93;97.17
70154;DHT22;57519;51.494;-2.626;2022-12-01T10:29:01;4.89;97.03
70154;DHT22;57519;51.494;-2.626;2022-12-01T10:34:02;4.90;96.91
70154;DHT22;57519;51.494;-2.626;2022-12-01T10:36:29;4.93;96.85
70154;DHT22;57519;51.494;-2.626;2022-12-01T10:38:55;4.80;96.66
70154;DHT22;57519;51.494;-2.626;2022-12-01T10:41:23;4.80;96.60
70154;DHT22;57519;51.494;-2.626;2022-12-01T10:43:51;4.80;96.52
70154;DHT22;57519;51.494;-2.626;2022-12-01T10:46:42;4.76;96.48
70154;DHT22;57519;51.494;-2.626;2022-12-01T10:49:13;4.85;96.38
70154;DHT22;57519;51.494;-2.626;2022-12-01T10:51:57;4.83;96.41
70154;DHT22;57519;51.494;-2.626;2022-12-01T10:54:37;4.86;96.41
70154;DHT22;57519;51.494;-2.626;2022-12-01T10:57:04;4.95;96.56
70154;DHT22;57519;51.494;-2.626;2022-12-01T10:59:37;5.01;96.46
70154;DHT22;57519;51.494;-2.626;2022-12-01T11:02:12;4.89;96.32
70154;DHT22;57519;51.494;-2.626;2022-12-01T11:04:51;4.95;96.35
70154;DHT22;57519;51.494;-2.626;2022-12-01T11:10:14;5.27;96.60
70154;DHT22;57519;51.494;-2.626;2022-12-01T11:12:42;5.50;96.69
70154;DHT22;57519;51.494;-2.626;2022-12-01T11:15:24;5.64;96.63
70154;DHT22;57519;51.494;-2.626;2022-12-01T11:18:08;5.65;96.31
70154;DHT22;57519;51.494;-2.626;2022-12-01T11:20:43;5.66;95.92
70154;DHT22;57519;51.494;-2.626;2022-12-01T11:23:21;5.73;95.87
70154;DHT22;57519;51.494;-2.626;2022-12-01T11:31:50;5.76;95.48
70154;DHT22;57519;51.494;-2.626;2022-12-01T11:34:25;5.68;95.12
70154;DHT22;57519;51.494;-2.626;2022-12-01T11:36:57;5.75;95.34
70154;DHT22;57519;51.494;-2.626;2022-12-01T11:39:28;5.79;95.30
70154;DHT22;57519;51.494;-2.626;2022-12-01T11:42:01;5.82;95.42
70154;DHT22;57519;51.494;-2.626;2022-12-01T11:44:29;5.73;94.90
70154;DHT22;57519;51.494;-2.626;2022-12-01T11:46:55;5.68;94.73
70154;DHT22;57519;51.494;-2.626;2022-12-01T11:49:25;5.72;95.01
70154;DHT22;57519;51.494;-2.626;2022-12-01T11:51:52;5.61;94.74
70154;DHT22;57519;51.494;-2.626;2022-12-01T11:54:18;5.47;94.75
70154;DHT22;57519;51.494;-2.626;2022-12-01T11:56:46;5.37;94.79
70154;DHT22;57519;51.494;-2.626;2022-12-01T11:59:15;5.55;95.28
70154;DHT22;57519;51.494;-2.626;2022-12-01T12:13:13;5.68;94.51
70154;DHT22;57519;51.494;-2.626;2022-12-01T12:19:40;5.76;95.32
70154;DHT22;57519;51.494;-2.626;2022-12-01T12:30:38;5.76;95.03
70154;DHT22;57519;51.494;-2.626;2022-12-01T12:33:21;5.69;94.80
70154;DHT22;57519;51.494;-2.626;2022-12-01T12:41:21;5.64;94.87
70154;DHT22;57519;51.494;-2.626;2022-12-01T12:44:22;5.86;95.46
70154;DHT22;57519;51.494;-2.626;2022-12-01T12:52:23;5.95;95.15
70154;DHT22;57519;51.494;-2.626;2022-12-01T12:57:39;5.69;94.34
70154;DHT22;57519;51.494;-2.626;2022-12-01T13:00:23;5.69;94.79
70154;DHT22;57519;51.494;-2.626;2022-12-01T13:02:55;5.64;94.87
70154;DHT22;57519;51.494;-2.626;2022-12-01T13:05:33;5.76;95.26
70154;DHT22;57519;51.494;-2.626;2022-12-01T13:08:10;5.91;95.63
70154;DHT22;57519;51.494;-2.626;2022-12-01T13:10:59;6.02;95.44
70154;DHT22;57519;51.494;-2.626;2022-12-01T13:16:08;5.81;94.58
70154;DHT22;57519;51.494;-2.626;2022-12-01T13:18:50;5.79;94.93
70154;DHT22;57519;51.494;-2.626;2022-12-01T13:21:19;5.91;95.15
70154;DHT22;57519;51.494;-2.626;2022-12-01T13:23:46;5.89;94.97
70154;DHT22;57519;51.494;-2.626;2022-12-01T13:26:14;5.98;94.77
70154;DHT22;57519;51.494;-2.626;2022-12-01T13:28:43;5.95;94.48
70154;DHT22;57519;51.494;-2.626;2022-12-01T13:31:12;5.99;94.35
70154;DHT22;57519;51.494;-2.626;2022-12-01T13:33:59;5.98;94.71
70154;DHT22;57519;51.494;-2.626;2022-12-01T13:36:26;5.98;94.76
70154;DHT22;57519;51.494;-2.626;2022-12-01T13:39:22;5.93;94.61
70154;DHT22;57519;51.494;-2.626;2022-12-01T13:42:01;6.03;94.48
70154;DHT22;57519;51.494;-2.626;2022-12-01T13:44:31;6.07;94.42
70154;DHT22;57519;51.494;-2.626;2022-12-01T13:47:02;6.05;94.18
70154;DHT22;57519;51.494;-2.626;2022-12-01T13:49:44;6.00;93.98
70154;DHT22;57519;51.494;-2.626;2022-12-01T13:55:18;6.12;94.43
70154;DHT22;57519;51.494;-2.626;2022-12-01T14:00:38;6.12;93.83
70154;DHT22;57519;51.494;-2.626;2022-12-01T14:03:31;6.02;93.90
70154;DHT22;57519;51.494;-2.626;2022-12-01T14:06:08;5.93;93.78
70154;DHT22;57519;51.494;-2.626;2022-12-01T14:08:46;5.92;93.77
70154;DHT22;57519;51.494;-2.626;2022-12-01T14:11:20;5.93;93.80
70154;DHT22;57519;51.494;-2.626;2022-12-01T14:16:49;5.93;93.76
70154;DHT22;57519;51.494;-2.626;2022-12-01T14:19:48;5.98;93.36
70154;DHT22;57519;51.494;-2.626;2022-12-01T14:22:38;5.96;93.34
70154;DHT22;57519;51.494;-2.626;2022-12-01T14:27:45;6.16;93.42
70154;DHT22;57519;51.494;-2.626;2022-12-01T14:39:19;5.93;93.15
70154;DHT22;57519;51.494;-2.626;2022-12-01T14:41:48;5.93;93.30
70154;DHT22;57519;51.494;-2.626;2022-12-01T14:49:49;5.93;93.33
70154;DHT22;57519;51.494;-2.626;2022-12-01T14:54:55;6.14;92.97
70154;DHT22;57519;51.494;-2.626;2022-12-01T14:57:28;6.17;92.85
70154;DHT22;57519;51.494;-2.626;2022-12-01T15:00:25;6.14;92.42
70154;DHT22;57519;51.494;-2.626;2022-12-01T15:02:59;6.14;92.72
70154;DHT22;57519;51.494;-2.626;2022-12-01T15:05:27;6.14;92.50
70154;DHT22;57519;51.494;-2.626;2022-12-01T15:07:55;6.09;92.84
70154;DHT22;57519;51.494;-2.626;2022-12-01T15:10:24;6.05;92.95
70154;DHT22;57519;51.494;-2.626;2022-12-01T15:12:51;6.02;93.01
70154;DHT22;57519;51.494;-2.626;2022-12-01T15:15:18;5.93;92.88
70154;DHT22;57519;51.494;-2.626;2022-12-01T15:17:44;5.83;93.00
70154;DHT22;57519;51.494;-2.626;2022-12-01T15:20:35;5.78;93.32
70154;DHT22;57519;51.494;-2.626;2022-12-01T15:23:09;5.69;93.43
70154;DHT22;57519;51.494;-2.626;2022-12-01T15:25:40;5.58;93.38
70154;DHT22;57519;51.494;-2.626;2022-12-01T15:30:39;5.52;94.01
70154;DHT22;57519;51.494;-2.626;2022-12-01T15:33:31;5.51;94.17
70154;DHT22;57519;51.494;-2.626;2022-12-01T15:35:56;5.44;94.25
70154;DHT22;57519;51.494;-2.626;2022-12-01T15:38:27;5.41;94.19
70154;DHT22;57519;51.494;-2.626;2022-12-01T15:40:53;5.38;94.05
70154;DHT22;57519;51.494;-2.626;2022-12-01T15:43:25;5.37;93.92
70154;DHT22;57519;51.494;-2.626;2022-12-01T15:46:00;5.28;93.97
70154;DHT22;57519;51.494;-2.626;2022-12-01T15:48:33;5.24;93.98
70154;DHT22;57519;51.494;-2.626;2022-12-01T15:51:24;5.26;94.12
70154;DHT22;57519;51.494;-2.626;2022-12-01T15:53:59;5.24;94.08
70154;DHT22;57519;51.494;-2.626;2022-12-01T15:56:37;5.22;94.36
70154;DHT22;57519;51.494;-2.626;2022-12-01T16:01:41;5.20;94.60
70154;DHT22;57519;51.494;-2.626;2022-12-01T16:04:28;5.17;94.58
70154;DHT22;57519;51.494;-2.626;2022-12-01T16:06:59;5.10;94.47
70154;DHT22;57519;51.494;-2.626;2022-12-01T16:15:14;4.97;95.12
70154;DHT22;57519;51.494;-2.626;2022-12-01T16:17:45;4.85;95.42
70154;DHT22;57519;51.494;-2.626;2022-12-01T16:20:29;4.83;95.61
70154;DHT22;57519;51.494;-2.626;2022-12-01T16:22:58;4.86;95.78
70154;DHT22;57519;51.494;-2.626;2022-12-01T16:25:32;4.90;95.80
70154;DHT22;57519;51.494;-2.626;2022-12-01T16:27:59;4.86;95.75
70154;DHT22;57519;51.494;-2.626;2022-12-01T16:30:26;4.83;95.58
70154;DHT22;57519;51.494;-2.626;2022-12-01T16:33:12;4.80;95.61
70154;DHT22;57519;51.494;-2.626;2022-12-01T16:35:38;4.83;95.59
70154;DHT22;57519;51.494;-2.626;2022-12-01T16:38:15;4.83;95.58
70154;DHT22;57519;51.494;-2.626;2022-12-01T16:40:45;4.76;95.56
70154;DHT22;57519;51.494;-2.626;2022-12-01T16:43:22;4.79;95.58
70154;DHT22;57519;51.494;-2.626;2022-12-01T16:45:49;4.79;95.57
70154;DHT22;57519;51.494;-2.626;2022-12-01T16:48:20;4.76;95.72
70154;DHT22;57519;51.494;-2.626;2022-12-01T16:50:49;4.69;95.87
70154;DHT22;57519;51.494;-2.626;2022-12-01T16:53:15;4.66;96.19
70154;DHT22;57519;51.494;-2.626;2022-12-01T16:55:46;4.61;96.31
70154;DHT22;57519;51.494;-2.626;2022-12-01T16:58:12;4.62;96.38
70154;DHT22;57519;51.494;-2.626;2022-12-01T17:00:37;4.55;96.29
70154;DHT22;57519;51.494;-2.626;2022-12-01T17:03:04;4.59;96.32
70154;DHT22;57519;51.494;-2.626;2022-12-01T17:05:29;4.59;96.42
70154;DHT22;57519;51.494;-2.626;2022-12-01T17:07:55;4.57;96.47
70154;DHT22;57519;51.494;-2.626;2022-12-01T17:10:21;4.48;96.47
70154;DHT22;57519;51.494;-2.626;2022-12-01T17:12:47;4.41;96.53
70154;DHT22;57519;51.494;-2.626;2022-12-01T17:15:13;4.40;96.65
70154;DHT22;57519;51.494;-2.626;2022-12-01T17:17:38;4.41;96.81
70154;DHT22;57519;51.494;-2.626;2022-12-01T17:20:04;4.33;96.87
70154;DHT22;57519;51.494;-2.626;2022-12-01T17:22:30;4.36;96.94
70154;DHT22;57519;51.494;-2.626;2022-12-01T17:24:56;4.37;96.91
70154;DHT22;57519;51.494;-2.626;2022-12-01T17:27:22;4.38;96.92
70154;DHT22;57519;51.494;-2.626;2022-12-01T17:29:49;4.42;96.93
70154;DHT22;57519;51.494;-2.626;2022-12-01T17:32:14;4.48;96.95
70154;DHT22;57519;51.494;-2.626;2022-12-01T17:34:40;4.48;96.89
70154;DHT22;57519;51.494;-2.626;2022-12-01T17:37:05;4.44;96.82
70154;DHT22;57519;51.494;-2.626;2022-12-01T17:39:31;4.40;96.82
70154;DHT22;57519;51.494;-2.626;2022-12-01T17:41:56;4.40;96.86
70154;DHT22;57519;51.494;-2.626;2022-12-01T17:44:22;4.40;96.88
70154;DHT22;57519;51.494;-2.626;2022-12-01T17:46:47;4.33;96.86
70154;DHT22;57519;51.494;-2.626;2022-12-01T17:49:13;4.30;96.88
70154;DHT22;57519;51.494;-2.626;2022-12-01T17:51:39;4.22;96.91